Tomah, Wisconsin
Current Conditions -  °F | °C
As of 1:15 AM on Saturday 29 Nov 2014 (Local Time) from KCMY Reporting Station
Haze Haze  
Wind Chill: 21°   Ceiling: Unl
Heat Index: 21°   Visibility: 5mi
Dew Point: 21°   Wind: 3mph
Humidity: 99%   Direction: 340°NNW
Pressure: 29.71"   Gusts: NA
Location:  43.97°N, 90.5°W
Report Text: KCMY 290715Z AUTO 34003KT 5SM BR CLR M06/M06 A2971 RMK AO2 T10601062
Loading
Personal Weather Stations






























Interactive Weather Map New forecast layout! Learn more

10-Day Weather Forecast

Advertisements
Track Severe Weather on mobile